sensor_id;sensor_type;location;lat;lon;timestamp;P1;durP1;ratioP1;P2;durP2;ratioP2
25780;SDS011;13626;48.128;11.628;2024-02-23T00:01:37;0.40;;;0.20;;
25780;SDS011;13626;48.128;11.628;2024-02-23T00:04:05;0.38;;;0.30;;
25780;SDS011;13626;48.128;11.628;2024-02-23T00:06:34;0.28;;;0.20;;
25780;SDS011;13626;48.128;11.628;2024-02-23T00:09:01;0.10;;;0.05;;
25780;SDS011;13626;48.128;11.628;2024-02-23T00:11:28;0.13;;;0.13;;
25780;SDS011;13626;48.128;11.628;2024-02-23T00:13:56;0.15;;;0.10;;
25780;SDS011;13626;48.128;11.628;2024-02-23T00:16:24;0.15;;;0.15;;
25780;SDS011;13626;48.128;11.628;2024-02-23T00:18:52;0.52;;;0.40;;
25780;SDS011;13626;48.128;11.628;2024-02-23T00:21:19;0.25;;;0.17;;
25780;SDS011;13626;48.128;11.628;2024-02-23T00:23:47;0.20;;;0.20;;
25780;SDS011;13626;48.128;11.628;2024-02-23T00:26:14;0.30;;;0.20;;
25780;SDS011;13626;48.128;11.628;2024-02-23T00:28:43;0.40;;;0.20;;
25780;SDS011;13626;48.128;11.628;2024-02-23T00:31:11;0.10;;;0.10;;
25780;SDS011;13626;48.128;11.628;2024-02-23T00:33:38;0.20;;;0.20;;
25780;SDS011;13626;48.128;11.628;2024-02-23T00:36:08;0.20;;;0.00;;
25780;SDS011;13626;48.128;11.628;2024-02-23T00:38:35;0.17;;;0.10;;
25780;SDS011;13626;48.128;11.628;2024-02-23T00:41:03;0.13;;;0.10;;
25780;SDS011;13626;48.128;11.628;2024-02-23T00:43:37;1.02;;;0.25;;
25780;SDS011;13626;48.128;11.628;2024-02-23T00:46:04;0.13;;;0.10;;
25780;SDS011;13626;48.128;11.628;2024-02-23T00:48:31;0.17;;;0.17;;
25780;SDS011;13626;48.128;11.628;2024-02-23T00:50:59;0.30;;;0.20;;
25780;SDS011;13626;48.128;11.628;2024-02-23T00:53:26;1.85;;;0.20;;
25780;SDS011;13626;48.128;11.628;2024-02-23T00:55:54;0.30;;;0.10;;
25780;SDS011;13626;48.128;11.628;2024-02-23T00:58:21;0.00;;;0.00;;
25780;SDS011;13626;48.128;11.628;2024-02-23T01:00:48;0.17;;;0.10;;
25780;SDS011;13626;48.128;11.628;2024-02-23T01:03:15;0.05;;;0.05;;
25780;SDS011;13626;48.128;11.628;2024-02-23T01:05:43;0.35;;;0.20;;
25780;SDS011;13626;48.128;11.628;2024-02-23T01:08:10;0.05;;;0.00;;
25780;SDS011;13626;48.128;11.628;2024-02-23T01:10:38;0.10;;;0.10;;
25780;SDS011;13626;48.128;11.628;2024-02-23T01:13:05;0.70;;;0.13;;
25780;SDS011;13626;48.128;11.628;2024-02-23T01:15:32;0.10;;;0.10;;
25780;SDS011;13626;48.128;11.628;2024-02-23T01:18:00;0.08;;;0.08;;
25780;SDS011;13626;48.128;11.628;2024-02-23T01:20:27;0.22;;;0.10;;
25780;SDS011;13626;48.128;11.628;2024-02-23T01:22:55;1.00;;;0.20;;
25780;SDS011;13626;48.128;11.628;2024-02-23T01:25:22;0.03;;;0.00;;
25780;SDS011;13626;48.128;11.628;2024-02-23T01:27:49;0.10;;;0.10;;
25780;SDS011;13626;48.128;11.628;2024-02-23T01:30:16;0.40;;;0.10;;
25780;SDS011;13626;48.128;11.628;2024-02-23T01:32:45;1.25;;;0.10;;
25780;SDS011;13626;48.128;11.628;2024-02-23T01:35:13;0.35;;;0.20;;
25780;SDS011;13626;48.128;11.628;2024-02-23T01:37:40;0.30;;;0.20;;
25780;SDS011;13626;48.128;11.628;2024-02-23T01:40:07;0.20;;;0.00;;
25780;SDS011;13626;48.128;11.628;2024-02-23T01:42:35;0.10;;;0.10;;
25780;SDS011;13626;48.128;11.628;2024-02-23T01:45:02;0.00;;;0.00;;
25780;SDS011;13626;48.128;11.628;2024-02-23T01:47:29;0.10;;;0.10;;
25780;SDS011;13626;48.128;11.628;2024-02-23T01:49:57;0.32;;;0.00;;
25780;SDS011;13626;48.128;11.628;2024-02-23T01:52:26;0.20;;;0.13;;
25780;SDS011;13626;48.128;11.628;2024-02-23T01:54:53;0.10;;;0.10;;
25780;SDS011;13626;48.128;11.628;2024-02-23T01:57:21;0.08;;;0.08;;
25780;SDS011;13626;48.128;11.628;2024-02-23T02:00:09;0.10;;;0.10;;
25780;SDS011;13626;48.128;11.628;2024-02-23T02:02:39;0.45;;;0.10;;
25780;SDS011;13626;48.128;11.628;2024-02-23T02:05:07;0.65;;;0.00;;
25780;SDS011;13626;48.128;11.628;2024-02-23T02:07:35;0.17;;;0.15;;
25780;SDS011;13626;48.128;11.628;2024-02-23T02:10:02;0.00;;;0.00;;
25780;SDS011;13626;48.128;11.628;2024-02-23T02:12:30;0.28;;;0.10;;
25780;SDS011;13626;48.128;11.628;2024-02-23T02:14:57;0.00;;;0.00;;
25780;SDS011;13626;48.128;11.628;2024-02-23T02:17:27;0.10;;;0.10;;
25780;SDS011;13626;48.128;11.628;2024-02-23T02:19:56;0.47;;;0.10;;
25780;SDS011;13626;48.128;11.628;2024-02-23T02:22:26;0.65;;;0.20;;
25780;SDS011;13626;48.128;11.628;2024-02-23T02:24:53;0.30;;;0.10;;
25780;SDS011;13626;48.128;11.628;2024-02-23T02:27:21;0.00;;;0.00;;
25780;SDS011;13626;48.128;11.628;2024-02-23T02:29:50;0.05;;;0.05;;
25780;SDS011;13626;48.128;11.628;2024-02-23T02:32:17;0.30;;;0.30;;
25780;SDS011;13626;48.128;11.628;2024-02-23T02:34:44;0.13;;;0.10;;
25780;SDS011;13626;48.128;11.628;2024-02-23T02:37:12;0.00;;;0.00;;
25780;SDS011;13626;48.128;11.628;2024-02-23T02:39:39;0.20;;;0.10;;
25780;SDS011;13626;48.128;11.628;2024-02-23T02:42:06;0.50;;;0.00;;
25780;SDS011;13626;48.128;11.628;2024-02-23T02:44:33;0.08;;;0.08;;
25780;SDS011;13626;48.128;11.628;2024-02-23T02:47:04;0.10;;;0.10;;
25780;SDS011;13626;48.128;11.628;2024-02-23T02:49:31;0.10;;;0.10;;
25780;SDS011;13626;48.128;11.628;2024-02-23T02:51:58;0.25;;;0.03;;
25780;SDS011;13626;48.128;11.628;2024-02-23T02:54:26;0.13;;;0.13;;
25780;SDS011;13626;48.128;11.628;2024-02-23T02:56:53;0.00;;;0.00;;
25780;SDS011;13626;48.128;11.628;2024-02-23T02:59:20;0.20;;;0.10;;
25780;SDS011;13626;48.128;11.628;2024-02-23T03:01:51;0.73;;;0.05;;
25780;SDS011;13626;48.128;11.628;2024-02-23T03:04:18;0.20;;;0.03;;
25780;SDS011;13626;48.128;11.628;2024-02-23T03:06:46;0.00;;;0.00;;
25780;SDS011;13626;48.128;11.628;2024-02-23T03:09:13;0.28;;;0.20;;
25780;SDS011;13626;48.128;11.628;2024-02-23T03:11:40;0.00;;;0.00;;
25780;SDS011;13626;48.128;11.628;2024-02-23T03:14:08;0.13;;;0.13;;
25780;SDS011;13626;48.128;11.628;2024-02-23T03:16:36;2.05;;;0.20;;
25780;SDS011;13626;48.128;11.628;2024-02-23T03:19:03;0.35;;;0.10;;
25780;SDS011;13626;48.128;11.628;2024-02-23T03:21:31;0.98;;;0.20;;
25780;SDS011;13626;48.128;11.628;2024-02-23T03:24:00;0.10;;;0.10;;
25780;SDS011;13626;48.128;11.628;2024-02-23T03:26:27;0.08;;;0.08;;
25780;SDS011;13626;48.128;11.628;2024-02-23T03:28:54;0.20;;;0.10;;
25780;SDS011;13626;48.128;11.628;2024-02-23T03:31:22;0.00;;;0.00;;
25780;SDS011;13626;48.128;11.628;2024-02-23T03:33:49;1.48;;;0.28;;
25780;SDS011;13626;48.128;11.628;2024-02-23T03:36:18;0.63;;;0.10;;
25780;SDS011;13626;48.128;11.628;2024-02-23T03:38:46;0.30;;;0.10;;
25780;SDS011;13626;48.128;11.628;2024-02-23T03:41:14;0.25;;;0.10;;
25780;SDS011;13626;48.128;11.628;2024-02-23T03:43:41;0.52;;;0.10;;
25780;SDS011;13626;48.128;11.628;2024-02-23T03:46:08;0.55;;;0.10;;
25780;SDS011;13626;48.128;11.628;2024-02-23T03:48:35;0.17;;;0.10;;
25780;SDS011;13626;48.128;11.628;2024-02-23T03:51:06;1.35;;;0.10;;
25780;SDS011;13626;48.128;11.628;2024-02-23T03:53:33;0.82;;;0.10;;
25780;SDS011;13626;48.128;11.628;2024-02-23T03:56:00;0.60;;;0.20;;
25780;SDS011;13626;48.128;11.628;2024-02-23T03:58:28;1.77;;;0.15;;
25780;SDS011;13626;48.128;11.628;2024-02-23T04:00:55;0.10;;;0.10;;
25780;SDS011;13626;48.128;11.628;2024-02-23T04:03:22;0.08;;;0.08;;
25780;SDS011;13626;48.128;11.628;2024-02-23T04:05:50;0.10;;;0.10;;
25780;SDS011;13626;48.128;11.628;2024-02-23T04:08:17;0.82;;;0.10;;
25780;SDS011;13626;48.128;11.628;2024-02-23T04:10:44;0.10;;;0.10;;
25780;SDS011;13626;48.128;11.628;2024-02-23T04:13:12;0.10;;;0.10;;
25780;SDS011;13626;48.128;11.628;2024-02-23T04:15:44;0.13;;;0.10;;
25780;SDS011;13626;48.128;11.628;2024-02-23T04:18:11;1.20;;;0.30;;
25780;SDS011;13626;48.128;11.628;2024-02-23T04:20:38;0.47;;;0.10;;
25780;SDS011;13626;48.128;11.628;2024-02-23T04:23:05;0.22;;;0.13;;
25780;SDS011;13626;48.128;11.628;2024-02-23T04:25:33;0.50;;;0.40;;
25780;SDS011;13626;48.128;11.628;2024-02-23T04:28:00;0.00;;;0.00;;
25780;SDS011;13626;48.128;11.628;2024-02-23T04:30:27;0.28;;;0.20;;
25780;SDS011;13626;48.128;11.628;2024-02-23T04:32:54;1.35;;;0.30;;
25780;SDS011;13626;48.128;11.628;2024-02-23T04:35:22;0.52;;;0.25;;
25780;SDS011;13626;48.128;11.628;2024-02-23T04:37:49;0.45;;;0.20;;
25780;SDS011;13626;48.128;11.628;2024-02-23T04:40:16;0.73;;;0.28;;
25780;SDS011;13626;48.128;11.628;2024-02-23T04:42:44;0.75;;;0.20;;
25780;SDS011;13626;48.128;11.628;2024-02-23T04:45:13;0.30;;;0.10;;
25780;SDS011;13626;48.128;11.628;2024-02-23T04:47:40;0.75;;;0.10;;
25780;SDS011;13626;48.128;11.628;2024-02-23T04:50:08;0.40;;;0.28;;
25780;SDS011;13626;48.128;11.628;2024-02-23T04:52:35;0.30;;;0.20;;
25780;SDS011;13626;48.128;11.628;2024-02-23T04:55:03;0.05;;;0.05;;
25780;SDS011;13626;48.128;11.628;2024-02-23T04:57:31;0.45;;;0.20;;
25780;SDS011;13626;48.128;11.628;2024-02-23T04:59:58;0.43;;;0.20;;
25780;SDS011;13626;48.128;11.628;2024-02-23T05:02:26;1.02;;;0.20;;
25780;SDS011;13626;48.128;11.628;2024-02-23T05:04:57;0.93;;;0.10;;
25780;SDS011;13626;48.128;11.628;2024-02-23T05:07:24;0.93;;;0.20;;
25780;SDS011;13626;48.128;11.628;2024-02-23T05:09:52;0.20;;;0.17;;
25780;SDS011;13626;48.128;11.628;2024-02-23T05:12:19;0.00;;;0.00;;
25780;SDS011;13626;48.128;11.628;2024-02-23T05:14:46;0.20;;;0.20;;
25780;SDS011;13626;48.128;11.628;2024-02-23T05:17:14;2.40;;;0.40;;
25780;SDS011;13626;48.128;11.628;2024-02-23T05:19:41;0.50;;;0.20;;
25780;SDS011;13626;48.128;11.628;2024-02-23T05:22:08;1.95;;;0.45;;
25780;SDS011;13626;48.128;11.628;2024-02-23T05:24:35;0.68;;;0.20;;
25780;SDS011;13626;48.128;11.628;2024-02-23T05:27:03;0.25;;;0.10;;
25780;SDS011;13626;48.128;11.628;2024-02-23T05:29:30;1.17;;;0.10;;
25780;SDS011;13626;48.128;11.628;2024-02-23T05:31:58;2.97;;;0.57;;
25780;SDS011;13626;48.128;11.628;2024-02-23T05:34:26;0.63;;;0.20;;
25780;SDS011;13626;48.128;11.628;2024-02-23T05:36:53;0.28;;;0.20;;
25780;SDS011;13626;48.128;11.628;2024-02-23T05:39:20;0.43;;;0.20;;
25780;SDS011;13626;48.128;11.628;2024-02-23T05:41:47;1.63;;;0.20;;
25780;SDS011;13626;48.128;11.628;2024-02-23T05:44:15;1.63;;;0.40;;
25780;SDS011;13626;48.128;11.628;2024-02-23T05:46:42;1.73;;;0.40;;
25780;SDS011;13626;48.128;11.628;2024-02-23T05:49:11;0.17;;;0.10;;
25780;SDS011;13626;48.128;11.628;2024-02-23T05:51:38;0.38;;;0.30;;
25780;SDS011;13626;48.128;11.628;2024-02-23T05:54:06;1.45;;;0.50;;
25780;SDS011;13626;48.128;11.628;2024-02-23T05:56:33;0.52;;;0.30;;
25780;SDS011;13626;48.128;11.628;2024-02-23T05:59:00;0.32;;;0.30;;
25780;SDS011;13626;48.128;11.628;2024-02-23T06:01:28;0.55;;;0.55;;
25780;SDS011;13626;48.128;11.628;2024-02-23T06:03:55;0.43;;;0.40;;
25780;SDS011;13626;48.128;11.628;2024-02-23T06:06:23;2.65;;;0.80;;
25780;SDS011;13626;48.128;11.628;2024-02-23T06:08:50;0.40;;;0.38;;
25780;SDS011;13626;48.128;11.628;2024-02-23T06:11:17;1.08;;;0.50;;
25780;SDS011;13626;48.128;11.628;2024-02-23T06:13:45;0.32;;;0.28;;
25780;SDS011;13626;48.128;11.628;2024-02-23T06:16:12;2.50;;;0.57;;
25780;SDS011;13626;48.128;11.628;2024-02-23T06:18:39;1.75;;;0.45;;
25780;SDS011;13626;48.128;11.628;2024-02-23T06:21:11;1.27;;;0.35;;
25780;SDS011;13626;48.128;11.628;2024-02-23T06:23:39;0.60;;;0.30;;
25780;SDS011;13626;48.128;11.628;2024-02-23T06:26:06;0.80;;;0.20;;
25780;SDS011;13626;48.128;11.628;2024-02-23T06:28:34;1.15;;;0.38;;
25780;SDS011;13626;48.128;11.628;2024-02-23T06:31:03;0.70;;;0.40;;
25780;SDS011;13626;48.128;11.628;2024-02-23T06:33:30;0.93;;;0.22;;
25780;SDS011;13626;48.128;11.628;2024-02-23T06:35:58;0.43;;;0.30;;
25780;SDS011;13626;48.128;11.628;2024-02-23T06:38:25;0.28;;;0.28;;
25780;SDS011;13626;48.128;11.628;2024-02-23T06:40:53;0.77;;;0.28;;
25780;SDS011;13626;48.128;11.628;2024-02-23T06:43:21;3.55;;;0.50;;
25780;SDS011;13626;48.128;11.628;2024-02-23T06:45:49;0.50;;;0.40;;
25780;SDS011;13626;48.128;11.628;2024-02-23T06:48:16;0.60;;;0.30;;
25780;SDS011;13626;48.128;11.628;2024-02-23T06:50:43;1.08;;;0.60;;
25780;SDS011;13626;48.128;11.628;2024-02-23T06:53:11;0.63;;;0.52;;
25780;SDS011;13626;48.128;11.628;2024-02-23T06:55:38;0.70;;;0.40;;
25780;SDS011;13626;48.128;11.628;2024-02-23T06:58:05;0.55;;;0.38;;
25780;SDS011;13626;48.128;11.628;2024-02-23T07:00:33;1.15;;;0.35;;
25780;SDS011;13626;48.128;11.628;2024-02-23T07:03:01;1.60;;;0.50;;
25780;SDS011;13626;48.128;11.628;2024-02-23T07:05:30;1.55;;;0.40;;
25780;SDS011;13626;48.128;11.628;2024-02-23T07:07:58;0.55;;;0.50;;
25780;SDS011;13626;48.128;11.628;2024-02-23T07:10:26;1.02;;;0.50;;
25780;SDS011;13626;48.128;11.628;2024-02-23T07:12:53;1.48;;;0.40;;
25780;SDS011;13626;48.128;11.628;2024-02-23T07:15:22;0.40;;;0.30;;
25780;SDS011;13626;48.128;11.628;2024-02-23T07:17:49;0.52;;;0.40;;
25780;SDS011;13626;48.128;11.628;2024-02-23T07:20:16;0.95;;;0.38;;
25780;SDS011;13626;48.128;11.628;2024-02-23T07:22:46;0.50;;;0.50;;
25780;SDS011;13626;48.128;11.628;2024-02-23T07:25:17;0.70;;;0.43;;
25780;SDS011;13626;48.128;11.628;2024-02-23T07:27:47;0.98;;;0.40;;
25780;SDS011;13626;48.128;11.628;2024-02-23T07:30:17;1.00;;;0.40;;
25780;SDS011;13626;48.128;11.628;2024-02-23T07:32:45;0.55;;;0.52;;
25780;SDS011;13626;48.128;11.628;2024-02-23T07:35:18;1.50;;;0.57;;
25780;SDS011;13626;48.128;11.628;2024-02-23T07:37:46;0.60;;;0.60;;
25780;SDS011;13626;48.128;11.628;2024-02-23T07:40:13;0.50;;;0.50;;
25780;SDS011;13626;48.128;11.628;2024-02-23T07:42:46;0.80;;;0.73;;
25780;SDS011;13626;48.128;11.628;2024-02-23T07:45:13;0.50;;;0.40;;
25780;SDS011;13626;48.128;11.628;2024-02-23T07:47:41;1.00;;;0.50;;
25780;SDS011;13626;48.128;11.628;2024-02-23T07:50:08;0.60;;;0.40;;
25780;SDS011;13626;48.128;11.628;2024-02-23T07:52:36;1.15;;;0.70;;
25780;SDS011;13626;48.128;11.628;2024-02-23T07:55:03;2.28;;;0.43;;
25780;SDS011;13626;48.128;11.628;2024-02-23T07:57:33;3.78;;;0.70;;
25780;SDS011;13626;48.128;11.628;2024-02-23T08:00:01;1.08;;;0.52;;
25780;SDS011;13626;48.128;11.628;2024-02-23T08:02:28;1.15;;;0.57;;
25780;SDS011;13626;48.128;11.628;2024-02-23T08:04:55;1.02;;;0.52;;
25780;SDS011;13626;48.128;11.628;2024-02-23T08:07:23;1.40;;;0.50;;
25780;SDS011;13626;48.128;11.628;2024-02-23T08:09:52;2.80;;;0.50;;
25780;SDS011;13626;48.128;11.628;2024-02-23T08:12:19;0.32;;;0.30;;
25780;SDS011;13626;48.128;11.628;2024-02-23T08:14:46;1.00;;;0.60;;
25780;SDS011;13626;48.128;11.628;2024-02-23T08:17:15;2.00;;;0.47;;
25780;SDS011;13626;48.128;11.628;2024-02-23T08:19:43;1.25;;;0.45;;
25780;SDS011;13626;48.128;11.628;2024-02-23T08:22:10;0.82;;;0.43;;
25780;SDS011;13626;48.128;11.628;2024-02-23T08:24:37;2.95;;;0.50;;
25780;SDS011;13626;48.128;11.628;2024-02-23T08:27:04;1.45;;;0.70;;
25780;SDS011;13626;48.128;11.628;2024-02-23T08:29:31;0.75;;;0.43;;
25780;SDS011;13626;48.128;11.628;2024-02-23T08:31:59;0.88;;;0.40;;
25780;SDS011;13626;48.128;11.628;2024-02-23T08:34:26;0.82;;;0.40;;
25780;SDS011;13626;48.128;11.628;2024-02-23T08:36:53;4.00;;;0.50;;
25780;SDS011;13626;48.128;11.628;2024-02-23T08:39:21;2.35;;;0.57;;
25780;SDS011;13626;48.128;11.628;2024-02-23T08:41:48;2.30;;;0.60;;
25780;SDS011;13626;48.128;11.628;2024-02-23T08:44:17;1.77;;;0.43;;
25780;SDS011;13626;48.128;11.628;2024-02-23T08:46:45;2.10;;;0.50;;
25780;SDS011;13626;48.128;11.628;2024-02-23T08:49:12;0.70;;;0.32;;
25780;SDS011;13626;48.128;11.628;2024-02-23T08:51:41;0.95;;;0.60;;
25780;SDS011;13626;48.128;11.628;2024-02-23T08:54:08;3.17;;;0.93;;
25780;SDS011;13626;48.128;11.628;2024-02-23T08:56:39;1.73;;;0.63;;
25780;SDS011;13626;48.128;11.628;2024-02-23T08:59:09;1.08;;;0.50;;
25780;SDS011;13626;48.128;11.628;2024-02-23T09:01:36;1.55;;;0.52;;
25780;SDS011;13626;48.128;11.628;2024-02-23T09:04:03;2.90;;;0.50;;
25780;SDS011;13626;48.128;11.628;2024-02-23T09:06:31;2.13;;;0.60;;
25780;SDS011;13626;48.128;11.628;2024-02-23T09:09:04;2.00;;;0.38;;
25780;SDS011;13626;48.128;11.628;2024-02-23T09:11:32;2.10;;;0.52;;
25780;SDS011;13626;48.128;11.628;2024-02-23T09:13:59;1.17;;;0.32;;
25780;SDS011;13626;48.128;11.628;2024-02-23T09:16:26;2.33;;;0.63;;
25780;SDS011;13626;48.128;11.628;2024-02-23T09:18:54;3.90;;;0.82;;
25780;SDS011;13626;48.128;11.628;2024-02-23T09:21:21;1.75;;;0.45;;
25780;SDS011;13626;48.128;11.628;2024-02-23T09:23:48;1.52;;;0.70;;
25780;SDS011;13626;48.128;11.628;2024-02-23T09:26:15;0.55;;;0.40;;
25780;SDS011;13626;48.128;11.628;2024-02-23T09:28:44;1.23;;;0.50;;
25780;SDS011;13626;48.128;11.628;2024-02-23T09:31:11;5.18;;;1.52;;
25780;SDS011;13626;48.128;11.628;2024-02-23T09:33:38;1.50;;;0.57;;
25780;SDS011;13626;48.128;11.628;2024-02-23T09:36:07;4.15;;;0.50;;
25780;SDS011;13626;48.128;11.628;2024-02-23T09:38:36;2.22;;;0.50;;
25780;SDS011;13626;48.128;11.628;2024-02-23T09:41:03;1.13;;;0.47;;
25780;SDS011;13626;48.128;11.628;2024-02-23T09:43:30;1.83;;;0.43;;
25780;SDS011;13626;48.128;11.628;2024-02-23T09:45:59;1.83;;;0.35;;
25780;SDS011;13626;48.128;11.628;2024-02-23T09:48:26;1.80;;;0.65;;
25780;SDS011;13626;48.128;11.628;2024-02-23T09:50:55;1.80;;;0.30;;
25780;SDS011;13626;48.128;11.628;2024-02-23T09:53:24;3.80;;;0.70;;
25780;SDS011;13626;48.128;11.628;2024-02-23T09:55:52;0.80;;;0.50;;
25780;SDS011;13626;48.128;11.628;2024-02-23T09:58:20;2.38;;;0.43;;
25780;SDS011;13626;48.128;11.628;2024-02-23T10:00:47;2.25;;;0.60;;
25780;SDS011;13626;48.128;11.628;2024-02-23T10:03:14;2.00;;;0.60;;
25780;SDS011;13626;48.128;11.628;2024-02-23T10:05:42;2.45;;;0.55;;
25780;SDS011;13626;48.128;11.628;2024-02-23T10:08:10;4.03;;;1.00;;
25780;SDS011;13626;48.128;11.628;2024-02-23T10:10:39;1.13;;;0.50;;
25780;SDS011;13626;48.128;11.628;2024-02-23T10:13:08;1.48;;;0.30;;
25780;SDS011;13626;48.128;11.628;2024-02-23T10:15:35;2.25;;;0.75;;
25780;SDS011;13626;48.128;11.628;2024-02-23T10:18:03;1.92;;;0.70;;
25780;SDS011;13626;48.128;11.628;2024-02-23T10:20:31;2.45;;;0.38;;
25780;SDS011;13626;48.128;11.628;2024-02-23T10:22:59;0.93;;;0.40;;
25780;SDS011;13626;48.128;11.628;2024-02-23T10:25:26;3.13;;;0.75;;
25780;SDS011;13626;48.128;11.628;2024-02-23T10:27:54;0.95;;;0.60;;
25780;SDS011;13626;48.128;11.628;2024-02-23T10:30:21;0.85;;;0.43;;
25780;SDS011;13626;48.128;11.628;2024-02-23T10:32:48;1.15;;;0.45;;
25780;SDS011;13626;48.128;11.628;2024-02-23T10:35:17;8.63;;;0.80;;
25780;SDS011;13626;48.128;11.628;2024-02-23T10:37:46;1.98;;;0.40;;
25780;SDS011;13626;48.128;11.628;2024-02-23T10:40:16;3.15;;;0.77;;
25780;SDS011;13626;48.128;11.628;2024-02-23T10:42:44;0.93;;;0.30;;
25780;SDS011;13626;48.128;11.628;2024-02-23T10:45:18;1.98;;;0.57;;
25780;SDS011;13626;48.128;11.628;2024-02-23T10:47:45;0.55;;;0.55;;
25780;SDS011;13626;48.128;11.628;2024-02-23T10:50:14;0.40;;;0.40;;
25780;SDS011;13626;48.128;11.628;2024-02-23T10:52:42;1.92;;;1.00;;
25780;SDS011;13626;48.128;11.628;2024-02-23T10:55:10;0.75;;;0.40;;
25780;SDS011;13626;48.128;11.628;2024-02-23T10:57:37;1.10;;;0.47;;
25780;SDS011;13626;48.128;11.628;2024-02-23T11:00:08;2.05;;;0.73;;
25780;SDS011;13626;48.128;11.628;2024-02-23T11:02:38;1.52;;;0.90;;
25780;SDS011;13626;48.128;11.628;2024-02-23T11:05:07;1.60;;;0.50;;
25780;SDS011;13626;48.128;11.628;2024-02-23T11:07:39;1.48;;;0.73;;
25780;SDS011;13626;48.128;11.628;2024-02-23T11:10:07;1.65;;;0.73;;
25780;SDS011;13626;48.128;11.628;2024-02-23T11:12:36;5.05;;;0.55;;
25780;SDS011;13626;48.128;11.628;2024-02-23T11:15:04;1.42;;;0.40;;
25780;SDS011;13626;48.128;11.628;2024-02-23T11:17:32;1.17;;;0.60;;
25780;SDS011;13626;48.128;11.628;2024-02-23T11:20:02;0.60;;;0.50;;
25780;SDS011;13626;48.128;11.628;2024-02-23T11:22:31;0.73;;;0.50;;
25780;SDS011;13626;48.128;11.628;2024-02-23T11:25:07;2.80;;;0.68;;
25780;SDS011;13626;48.128;11.628;2024-02-23T11:27:37;2.15;;;0.60;;
25780;SDS011;13626;48.128;11.628;2024-02-23T11:30:05;2.95;;;0.68;;
25780;SDS011;13626;48.128;11.628;2024-02-23T11:32:46;1.27;;;0.50;;
25780;SDS011;13626;48.128;11.628;2024-02-23T11:35:15;2.22;;;0.50;;
25780;SDS011;13626;48.128;11.628;2024-02-23T11:37:52;3.28;;;0.50;;
25780;SDS011;13626;48.128;11.628;2024-02-23T11:40:30;2.10;;;0.65;;
25780;SDS011;13626;48.128;11.628;2024-02-23T11:42:58;3.97;;;0.50;;
25780;SDS011;13626;48.128;11.628;2024-02-23T11:45:30;1.10;;;0.70;;
25780;SDS011;13626;48.128;11.628;2024-02-23T11:47:58;0.80;;;0.38;;
25780;SDS011;13626;48.128;11.628;2024-02-23T11:50:26;2.25;;;0.70;;
25780;SDS011;13626;48.128;11.628;2024-02-23T11:52:53;1.90;;;0.70;;
25780;SDS011;13626;48.128;11.628;2024-02-23T11:55:21;1.23;;;0.38;;
25780;SDS011;13626;48.128;11.628;2024-02-23T11:57:50;0.90;;;0.80;;
25780;SDS011;13626;48.128;11.628;2024-02-23T12:00:30;0.82;;;0.40;;
25780;SDS011;13626;48.128;11.628;2024-02-23T12:02:58;1.67;;;0.47;;
25780;SDS011;13626;48.128;11.628;2024-02-23T12:05:26;0.47;;;0.40;;
25780;SDS011;13626;48.128;11.628;2024-02-23T12:07:54;2.88;;;0.88;;
25780;SDS011;13626;48.128;11.628;2024-02-23T12:10:23;3.03;;;0.70;;
25780;SDS011;13626;48.128;11.628;2024-02-23T12:12:53;1.38;;;0.45;;
25780;SDS011;13626;48.128;11.628;2024-02-23T12:15:20;1.35;;;0.50;;
25780;SDS011;13626;48.128;11.628;2024-02-23T12:17:48;1.92;;;0.30;;
25780;SDS011;13626;48.128;11.628;2024-02-23T12:20:16;1.27;;;0.52;;
25780;SDS011;13626;48.128;11.628;2024-02-23T12:22:44;0.30;;;0.30;;
25780;SDS011;13626;48.128;11.628;2024-02-23T12:25:14;0.68;;;0.43;;
25780;SDS011;13626;48.128;11.628;2024-02-23T12:27:42;2.05;;;0.50;;
25780;SDS011;13626;48.128;11.628;2024-02-23T12:30:15;0.70;;;0.60;;
25780;SDS011;13626;48.128;11.628;2024-02-23T12:32:44;0.38;;;0.32;;
25780;SDS011;13626;48.128;11.628;2024-02-23T12:35:12;0.88;;;0.30;;
25780;SDS011;13626;48.128;11.628;2024-02-23T12:37:39;0.73;;;0.38;;
25780;SDS011;13626;48.128;11.628;2024-02-23T12:40:11;1.42;;;0.30;;
25780;SDS011;13626;48.128;11.628;2024-02-23T12:42:39;2.08;;;0.32;;
25780;SDS011;13626;48.128;11.628;2024-02-23T12:45:06;0.52;;;0.30;;
25780;SDS011;13626;48.128;11.628;2024-02-23T12:47:34;0.77;;;0.28;;
25780;SDS011;13626;48.128;11.628;2024-02-23T12:50:02;2.90;;;0.50;;
25780;SDS011;13626;48.128;11.628;2024-02-23T12:52:29;0.82;;;0.30;;
25780;SDS011;13626;48.128;11.628;2024-02-23T12:54:56;1.10;;;0.47;;
25780;SDS011;13626;48.128;11.628;2024-02-23T12:57:25;0.57;;;0.30;;
25780;SDS011;13626;48.128;11.628;2024-02-23T12:59:52;1.15;;;0.15;;
25780;SDS011;13626;48.128;11.628;2024-02-23T13:02:20;0.98;;;0.30;;
25780;SDS011;13626;48.128;11.628;2024-02-23T13:04:48;0.98;;;0.20;;
25780;SDS011;13626;48.128;11.628;2024-02-23T13:07:15;0.47;;;0.25;;
25780;SDS011;13626;48.128;11.628;2024-02-23T13:09:43;2.13;;;0.45;;
25780;SDS011;13626;48.128;11.628;2024-02-23T13:12:10;1.20;;;0.30;;
25780;SDS011;13626;48.128;11.628;2024-02-23T13:14:38;0.47;;;0.28;;
25780;SDS011;13626;48.128;11.628;2024-02-23T13:17:06;0.30;;;0.25;;
25780;SDS011;13626;48.128;11.628;2024-02-23T13:19:33;0.60;;;0.30;;
25780;SDS011;13626;48.128;11.628;2024-02-23T13:22:01;6.93;;;0.60;;
25780;SDS011;13626;48.128;11.628;2024-02-23T13:24:28;0.50;;;0.45;;
25780;SDS011;13626;48.128;11.628;2024-02-23T13:26:55;0.40;;;0.30;;
25780;SDS011;13626;48.128;11.628;2024-02-23T13:29:23;0.40;;;0.30;;
25780;SDS011;13626;48.128;11.628;2024-02-23T13:31:51;0.40;;;0.20;;
25780;SDS011;13626;48.128;11.628;2024-02-23T13:34:19;1.17;;;0.40;;
25780;SDS011;13626;48.128;11.628;2024-02-23T13:36:46;0.77;;;0.28;;
25780;SDS011;13626;48.128;11.628;2024-02-23T13:39:16;1.35;;;0.70;;
25780;SDS011;13626;48.128;11.628;2024-02-23T13:41:43;1.05;;;0.40;;
25780;SDS011;13626;48.128;11.628;2024-02-23T13:44:10;0.80;;;0.38;;
25780;SDS011;13626;48.128;11.628;2024-02-23T13:46:38;0.63;;;0.30;;
25780;SDS011;13626;48.128;11.628;2024-02-23T13:49:06;1.92;;;0.52;;
25780;SDS011;13626;48.128;11.628;2024-02-23T13:51:36;0.20;;;0.20;;
25780;SDS011;13626;48.128;11.628;2024-02-23T13:54:03;1.00;;;0.45;;
25780;SDS011;13626;48.128;11.628;2024-02-23T13:56:31;0.60;;;0.32;;
25780;SDS011;13626;48.128;11.628;2024-02-23T13:58:58;0.82;;;0.30;;
25780;SDS011;13626;48.128;11.628;2024-02-23T14:01:26;0.63;;;0.40;;
25780;SDS011;13626;48.128;11.628;2024-02-23T14:03:53;1.17;;;0.30;;
25780;SDS011;13626;48.128;11.628;2024-02-23T14:06:21;5.18;;;0.73;;
25780;SDS011;13626;48.128;11.628;2024-02-23T14:08:50;1.88;;;0.40;;
25780;SDS011;13626;48.128;11.628;2024-02-23T14:11:18;1.30;;;0.45;;
25780;SDS011;13626;48.128;11.628;2024-02-23T14:13:45;0.30;;;0.30;;
25780;SDS011;13626;48.128;11.628;2024-02-23T14:16:16;1.17;;;0.52;;
25780;SDS011;13626;48.128;11.628;2024-02-23T14:18:44;0.88;;;0.30;;
25780;SDS011;13626;48.128;11.628;2024-02-23T14:21:11;1.20;;;0.52;;
25780;SDS011;13626;48.128;11.628;2024-02-23T14:23:40;0.20;;;0.20;;
25780;SDS011;13626;48.128;11.628;2024-02-23T14:26:08;1.13;;;0.30;;
25780;SDS011;13626;48.128;11.628;2024-02-23T14:28:35;2.05;;;0.30;;
25780;SDS011;13626;48.128;11.628;2024-02-23T14:31:03;1.60;;;0.30;;
25780;SDS011;13626;48.128;11.628;2024-02-23T14:33:31;0.75;;;0.30;;
25780;SDS011;13626;48.128;11.628;2024-02-23T14:35:58;0.55;;;0.30;;
25780;SDS011;13626;48.128;11.628;2024-02-23T14:38:26;0.52;;;0.30;;